Time;durP1;ratioP1;P1;durP2;ratioP2;P2;SDS_P1;SDS_P2;PMS_P1;PMS_P2;Temp;Humidity;BMP_temperature;BMP_pressure;BME280_temperature;BME280_humidity;BME280_pressure;Samples;Min_cycle;Max_cycle;Signal;HPM_P1;HPM_P2
2022/11/06 00:00:21;;;;;;;10.15;4.57;;;;;;;;;;5072474;28;20028;-74
2022/11/06 00:02:47;;;;;;;10.77;4.95;;;;;;;;;;5071909;28;20027;-74
2022/11/06 00:07:59;;;;;;;12.98;5.30;;;;;;;;;;5071970;28;20036;-74
2022/11/06 00:10:25;;;;;;;10.70;5.03;;;;;;;;;;5071945;28;20033;-74
2022/11/06 00:12:51;;;;;;;10.70;5.45;;;;;;;;;;5072191;28;20039;-74
2022/11/06 00:15:18;;;;;;;12.95;5.00;;;;;;;;;;5071325;28;20045;-74
2022/11/06 00:17:44;;;;;;;13.30;5.07;;;;;;;;;;5071498;28;20021;-74
2022/11/06 00:20:10;;;;;;;11.30;5.15;;;;;;;;;;5071925;28;20024;-74
2022/11/06 00:22:37;;;;;;;9.10;4.70;;;;;;;;;;5071811;28;20473;-74
2022/11/06 00:25:04;;;;;;;14.07;5.70;;;;;;;;;;5071819;28;20020;-74
2022/11/06 00:27:30;;;;;;;13.50;6.72;;;;;;;;;;5071849;28;20493;-74
2022/11/06 00:29:56;;;;;;;11.27;5.55;;;;;;;;;;5071957;28;20029;-74
2022/11/06 00:32:23;;;;;;;13.52;6.38;;;;;;;;;;5071449;28;20025;-74
2022/11/06 00:34:49;;;;;;;9.73;5.43;;;;;;;;;;5071591;28;20029;-74
2022/11/06 00:37:16;;;;;;;10.25;5.32;;;;;;;;;;5072002;28;20023;-74
2022/11/06 00:39:42;;;;;;;13.75;5.78;;;;;;;;;;5071863;28;20035;-74
2022/11/06 00:42:08;;;;;;;13.27;6.32;;;;;;;;;;5071942;28;20031;-74
2022/11/06 00:44:34;;;;;;;13.80;6.32;;;;;;;;;;5071570;28;20032;-73
2022/11/06 00:47:01;;;;;;;13.20;5.72;;;;;;;;;;5071347;28;20028;-74
2022/11/06 00:49:27;;;;;;;12.32;5.95;;;;;;;;;;5071685;28;20041;-74
2022/11/06 00:51:54;;;;;;;17.35;5.72;;;;;;;;;;5071644;28;20538;-73
2022/11/06 00:54:20;;;;;;;10.93;4.38;;;;;;;;;;5071853;28;20035;-74
2022/11/06 00:56:46;;;;;;;8.35;4.03;;;;;;;;;;5071857;28;20134;-74
2022/11/06 00:59:13;;;;;;;9.27;4.45;;;;;;;;;;5071619;28;20492;-73
2022/11/06 01:01:41;;;;;;;11.70;4.80;;;;;;;;;;5071264;28;20023;-73
2022/11/06 01:04:12;;;;;;;9.05;4.20;;;;;;;;;;5071445;28;20035;-74
2022/11/06 01:06:40;;;;;;;9.90;4.90;;;;;;;;;;5071509;28;20020;-73
2022/11/06 01:09:06;;;;;;;11.63;5.32;;;;;;;;;;5087158;28;20032;-73
2022/11/06 01:11:35;;;;;;;10.98;4.63;;;;;;;;;;5071866;28;20033;-73
2022/11/06 01:14:02;;;;;;;10.50;4.85;;;;;;;;;;5071306;28;20052;-74
2022/11/06 01:16:28;;;;;;;12.45;6.20;;;;;;;;;;5070911;28;20036;-73
2022/11/06 01:18:55;;;;;;;11.68;6.25;;;;;;;;;;5071407;28;20473;-73
2022/11/06 01:21:23;;;;;;;24.17;10.40;;;;;;;;;;5071702;28;20019;-73
2022/11/06 01:23:57;;;;;;;22.50;8.30;;;;;;;;;;5071090;28;20517;-73
2022/11/06 01:26:24;;;;;;;16.48;6.28;;;;;;;;;;5071121;28;20020;-74
2022/11/06 01:28:50;;;;;;;12.00;5.75;;;;;;;;;;5073188;28;20031;-73
2022/11/06 01:31:18;;;;;;;9.18;5.13;;;;;;;;;;5073636;28;20029;-73
2022/11/06 01:33:44;;;;;;;9.32;4.50;;;;;;;;;;5075194;28;20032;-73
2022/11/06 01:36:11;;;;;;;9.45;4.30;;;;;;;;;;5075129;28;20032;-73
2022/11/06 01:38:42;;;;;;;8.15;4.43;;;;;;;;;;5074767;28;20020;-73
2022/11/06 01:41:08;;;;;;;8.70;4.97;;;;;;;;;;5074921;28;20037;-73
2022/11/06 01:43:53;;;;;;;11.20;4.47;;;;;;;;;;5074372;28;20051;-74
2022/11/06 01:46:20;;;;;;;13.90;6.30;;;;;;;;;;5054667;28;20036;-74
2022/11/06 01:49:00;;;;;;;11.60;5.50;;;;;;;;;;5054718;28;20385;-73
2022/11/06 01:51:27;;;;;;;12.13;5.35;;;;;;;;;;5058535;28;20038;-73
2022/11/06 01:53:54;;;;;;;8.13;4.03;;;;;;;;;;5074734;28;20032;-74
2022/11/06 01:56:21;;;;;;;9.40;4.20;;;;;;;;;;5073215;28;20028;-73
2022/11/06 01:58:48;;;;;;;9.00;4.05;;;;;;;;;;5074196;28;20021;-73
2022/11/06 02:01:15;;;;;;;11.25;4.18;;;;;;;;;;5074371;28;20025;-74
2022/11/06 02:03:45;;;;;;;9.98;4.20;;;;;;;;;;5074335;28;20039;-73
2022/11/06 02:06:12;;;;;;;7.37;4.00;;;;;;;;;;5074543;28;20021;-73
2022/11/06 02:08:38;;;;;;;6.55;3.20;;;;;;;;;;5074539;28;20255;-73
2022/11/06 02:11:04;;;;;;;7.28;3.58;;;;;;;;;;5073980;28;20023;-73
2022/11/06 02:13:44;;;;;;;7.78;3.53;;;;;;;;;;5073668;28;20485;-74
2022/11/06 02:16:29;;;;;;;9.95;4.40;;;;;;;;;;5072725;28;20085;-74
2022/11/06 02:19:16;;;;;;;9.88;4.30;;;;;;;;;;5074244;28;20089;-73
2022/11/06 02:22:05;;;;;;;14.80;5.93;;;;;;;;;;5074045;28;20054;-73
2022/11/06 02:24:32;;;;;;;7.32;3.65;;;;;;;;;;5070864;28;21231;-73
2022/11/06 02:27:12;;;;;;;9.13;3.50;;;;;;;;;;5073889;28;20021;-73
2022/11/06 02:29:57;;;;;;;10.43;3.95;;;;;;;;;;5073867;28;20059;-73
2022/11/06 02:32:28;;;;;;;6.47;3.72;;;;;;;;;;5074224;28;20023;-74
2022/11/06 02:34:54;;;;;;;;;;;;;;;;;;5074188;28;20390;-73
2022/11/06 02:37:24;;;;;;;127.85;32.40;;;;;;;;;;5074040;28;19904;-74
2022/11/06 02:39:51;;;;;;;103.35;28.75;;;;;;;;;;5073287;28;20024;-74
2022/11/06 02:42:19;;;;;;;80.18;22.40;;;;;;;;;;5073406;28;20024;-73
2022/11/06 02:44:47;;;;;;;54.80;16.10;;;;;;;;;;5073499;28;20040;-74
2022/11/06 02:47:14;;;;;;;31.13;9.98;;;;;;;;;;5073718;28;20058;-73
2022/11/06 02:49:43;;;;;;;24.33;7.90;;;;;;;;;;5073266;28;20038;-73
2022/11/06 02:52:15;;;;;;;17.10;6.90;;;;;;;;;;5072336;28;20020;-73
2022/11/06 02:54:44;;;;;;;11.70;5.03;;;;;;;;;;5073813;28;20484;-73
2022/11/06 02:57:15;;;;;;;6.97;3.75;;;;;;;;;;5072830;28;20027;-74
2022/11/06 02:59:48;;;;;;;7.45;3.92;;;;;;;;;;5073198;28;20024;-73
2022/11/06 03:02:17;;;;;;;7.53;3.10;;;;;;;;;;5073021;28;20037;-73
2022/11/06 03:04:47;;;;;;;5.55;3.70;;;;;;;;;;5072130;28;20042;-74
2022/11/06 03:07:27;;;;;;;10.32;4.43;;;;;;;;;;5072988;28;20023;-73
2022/11/06 03:09:54;;;;;;;5.78;3.35;;;;;;;;;;5072866;28;20388;-74
2022/11/06 03:12:21;;;;;;;8.88;3.63;;;;;;;;;;5072446;28;20028;-73
2022/11/06 03:14:54;;;;;;;7.10;3.60;;;;;;;;;;5072674;28;20153;-73
2022/11/06 03:17:22;;;;;;;5.03;3.05;;;;;;;;;;5073056;28;20027;-74
2022/11/06 03:19:55;;;;;;;9.05;3.80;;;;;;;;;;5072981;28;20035;-73
2022/11/06 03:22:24;;;;;;;10.05;3.58;;;;;;;;;;5073041;28;20021;-74
2022/11/06 03:25:09;;;;;;;6.05;3.55;;;;;;;;;;5072391;28;20066;-74
2022/11/06 03:27:38;;;;;;;8.15;3.67;;;;;;;;;;5072664;28;20020;-74
2022/11/06 03:30:05;;;;;;;10.15;3.42;;;;;;;;;;5072841;28;20039;-73
2022/11/06 03:32:43;;;;;;;7.22;3.20;;;;;;;;;;5072722;28;20461;-74
2022/11/06 03:35:09;;;;;;;6.57;3.67;;;;;;;;;;5072966;28;20029;-73
2022/11/06 03:37:58;;;;;;;12.00;3.40;;;;;;;;;;5072591;28;20016;-73
2022/11/06 03:40:26;;;;;;;8.13;3.90;;;;;;;;;;5072226;28;20016;-73
2022/11/06 03:42:55;;;;;;;7.63;3.63;;;;;;;;;;5071310;28;20024;-74
2022/11/06 03:45:24;;;;;;;7.95;3.72;;;;;;;;;;5072393;28;20354;-74
2022/11/06 03:47:57;;;;;;;9.18;3.33;;;;;;;;;;5071061;28;20027;-73
2022/11/06 03:50:30;;;;;;;6.93;3.08;;;;;;;;;;5071555;28;20031;-73
2022/11/06 03:53:05;;;;;;;4.22;3.05;;;;;;;;;;5070980;28;20515;-74
2022/11/06 03:55:34;;;;;;;5.88;2.85;;;;;;;;;;5072110;28;20416;-73
2022/11/06 03:58:04;;;;;;;7.50;3.10;;;;;;;;;;5072460;28;20029;-74
2022/11/06 04:00:33;;;;;;;5.33;3.00;;;;;;;;;;5072057;28;20394;-74
2022/11/06 04:03:05;;;;;;;7.13;3.00;;;;;;;;;;5071960;28;20024;-74
2022/11/06 04:05:43;;;;;;;6.63;2.92;;;;;;;;;;5072423;28;20027;-74
2022/11/06 04:13:56;;;;;;;8.85;3.28;;;;;;;;;;5071773;28;20054;-73
2022/11/06 04:16:25;;;;;;;6.35;3.10;;;;;;;;;;5072329;28;20036;-74
2022/11/06 04:18:51;;;;;;;7.55;3.05;;;;;;;;;;5071789;28;20031;-74
2022/11/06 04:21:24;;;;;;;8.90;3.58;;;;;;;;;;5071897;28;20038;-73
2022/11/06 04:27:20;;;;;;;10.80;3.85;;;;;;;;;;5071873;28;20423;-74
2022/11/06 04:29:55;;;;;;;5.47;3.17;;;;;;;;;;5072155;28;20023;-72
2022/11/06 04:32:21;;;;;;;5.65;3.15;;;;;;;;;;5071808;28;20035;-73
2022/11/06 04:34:47;;;;;;;7.25;2.70;;;;;;;;;;5071945;28;20032;-73
2022/11/06 04:37:20;;;;;;;6.60;3.30;;;;;;;;;;5071917;28;20382;-73
2022/11/06 04:40:05;;;;;;;8.25;3.22;;;;;;;;;;5072148;28;20511;-74
2022/11/06 04:42:42;;;;;;;6.60;3.00;;;;;;;;;;5070603;28;20057;-73
2022/11/06 04:45:12;;;;;;;9.68;3.55;;;;;;;;;;5071522;28;20039;-73
2022/11/06 04:47:39;;;;;;;6.38;3.10;;;;;;;;;;5071735;28;20427;-73
2022/11/06 04:50:07;;;;;;;5.78;3.00;;;;;;;;;;5071877;28;20037;-73
2022/11/06 04:52:34;;;;;;;5.35;2.85;;;;;;;;;;5071544;28;20029;-72
2022/11/06 04:55:01;;;;;;;6.45;3.25;;;;;;;;;;5071513;28;20023;-73
2022/11/06 04:57:27;;;;;;;6.50;3.03;;;;;;;;;;5071461;28;20434;-73
2022/11/06 04:59:55;;;;;;;7.57;3.20;;;;;;;;;;5071621;28;20367;-73
2022/11/06 05:02:22;;;;;;;6.43;3.33;;;;;;;;;;5073378;28;20020;-73
2022/11/06 05:04:48;;;;;;;6.80;3.25;;;;;;;;;;5075537;28;20033;-73
2022/11/06 05:07:16;;;;;;;5.60;2.47;;;;;;;;;;5074950;28;20423;-74
2022/11/06 05:09:44;;;;;;;6.75;2.70;;;;;;;;;;5075320;28;20036;-74
2022/11/06 05:12:10;;;;;;;4.95;2.80;;;;;;;;;;5075126;28;20021;-74
2022/11/06 05:14:37;;;;;;;7.90;2.90;;;;;;;;;;5074902;28;20059;-73
2022/11/06 05:17:03;;;;;;;5.95;2.63;;;;;;;;;;5075515;28;20032;-73
2022/11/06 05:19:29;;;;;;;5.57;2.28;;;;;;;;;;5075519;28;20028;-73
2022/11/06 05:24:40;;;;;;;6.22;2.80;;;;;;;;;;5075189;28;20082;-74
2022/11/06 05:27:07;;;;;;;5.70;3.05;;;;;;;;;;5074873;28;20032;-73
2022/11/06 05:29:33;;;;;;;7.22;3.20;;;;;;;;;;5075050;28;20478;-73
2022/11/06 05:31:59;;;;;;;8.32;3.58;;;;;;;;;;5075054;28;20102;-74
2022/11/06 05:34:26;;;;;;;9.65;3.50;;;;;;;;;;5074941;28;20025;-74
2022/11/06 05:36:52;;;;;;;6.43;3.45;;;;;;;;;;5074350;28;20435;-73
2022/11/06 05:39:18;;;;;;;11.75;3.90;;;;;;;;;;5074795;28;20027;-73
2022/11/06 05:41:44;;;;;;;6.97;3.78;;;;;;;;;;5074824;28;20020;-74
2022/11/06 05:44:11;;;;;;;6.70;3.70;;;;;;;;;;5074843;28;20036;-73
2022/11/06 05:46:37;;;;;;;8.63;3.58;;;;;;;;;;5074684;28;20020;-73
2022/11/06 05:49:03;;;;;;;8.55;3.47;;;;;;;;;;5073583;28;20024;-73
2022/11/06 05:51:30;;;;;;;6.75;3.35;;;;;;;;;;5074545;28;20033;-73
2022/11/06 05:53:56;;;;;;;8.32;3.40;;;;;;;;;;5073528;28;20047;-73
2022/11/06 05:56:22;;;;;;;6.10;2.90;;;;;;;;;;5074542;28;20508;-73
2022/11/06 05:58:49;;;;;;;6.82;3.17;;;;;;;;;;5073347;28;20036;-74
2022/11/06 06:01:15;;;;;;;6.20;2.55;;;;;;;;;;5074245;28;20481;-74
2022/11/06 06:03:41;;;;;;;5.10;2.80;;;;;;;;;;5074632;28;20032;-73
2022/11/06 06:06:08;;;;;;;6.13;2.88;;;;;;;;;;5074055;28;20405;-74
2022/11/06 06:08:34;;;;;;;5.63;2.53;;;;;;;;;;5074341;28;20020;-74
2022/11/06 06:11:05;;;;;;;6.20;2.83;;;;;;;;;;5074344;28;20021;-73
2022/11/06 06:13:31;;;;;;;7.78;2.80;;;;;;;;;;5073285;28;20021;-74
2022/11/06 06:16:01;;;;;;;5.57;2.58;;;;;;;;;;5074255;28;20101;-73
2022/11/06 06:18:27;;;;;;;6.53;2.92;;;;;;;;;;5074387;28;20025;-73
2022/11/06 06:20:53;;;;;;;4.63;2.92;;;;;;;;;;5073678;28;20020;-73
2022/11/06 06:23:20;;;;;;;6.28;2.95;;;;;;;;;;5074042;28;20029;-73
2022/11/06 06:25:46;;;;;;;4.97;3.10;;;;;;;;;;5072729;28;20029;-73
2022/11/06 06:28:12;;;;;;;5.60;2.70;;;;;;;;;;5073834;28;20025;-73
2022/11/06 06:30:39;;;;;;;8.98;3.20;;;;;;;;;;5073811;28;20024;-74
2022/11/06 06:33:05;;;;;;;5.57;2.45;;;;;;;;;;5073766;28;20057;-73
2022/11/06 06:35:32;;;;;;;8.10;3.05;;;;;;;;;;5055976;28;20039;-74
2022/11/06 06:37:58;;;;;;;4.65;2.50;;;;;;;;;;5073938;28;20473;-73
2022/11/06 06:40:25;;;;;;;23.55;11.75;;;;;;;;;;5073645;28;20048;-73
2022/11/06 06:42:55;;;;;;;14.20;7.03;;;;;;;;;;5073777;28;20021;-73
2022/11/06 06:45:21;;;;;;;16.75;7.00;;;;;;;;;;5073477;28;20040;-73
2022/11/06 06:47:47;;;;;;;9.90;4.75;;;;;;;;;;5073013;28;20016;-73
2022/11/06 06:50:14;;;;;;;12.73;4.72;;;;;;;;;;5073514;28;20032;-74
2022/11/06 06:52:40;;;;;;;5.57;3.08;;;;;;;;;;5072301;28;20039;-74
2022/11/06 06:55:06;;;;;;;5.32;3.15;;;;;;;;;;5073424;28;20368;-74
2022/11/06 06:57:33;;;;;;;5.88;2.67;;;;;;;;;;5073251;28;20025;-73
2022/11/06 06:59:59;;;;;;;6.18;3.30;;;;;;;;;;5073316;28;20040;-74
2022/11/06 07:02:25;;;;;;;10.70;3.65;;;;;;;;;;5073145;28;20026;-74
2022/11/06 07:04:52;;;;;;;51.10;22.52;;;;;;;;;;5073277;28;20040;-74
2022/11/06 07:07:18;;;;;;;20.95;7.53;;;;;;;;;;5073406;28;20025;-73
2022/11/06 07:09:44;;;;;;;8.55;3.80;;;;;;;;;;5073314;28;20478;-73
2022/11/06 07:12:11;;;;;;;10.50;4.88;;;;;;;;;;5073398;28;20024;-74
2022/11/06 07:14:37;;;;;;;31.42;13.40;;;;;;;;;;5072813;28;20501;-73
2022/11/06 07:17:03;;;;;;;12.10;5.72;;;;;;;;;;5072944;28;20029;-73
2022/11/06 07:19:30;;;;;;;8.32;3.33;;;;;;;;;;5072906;28;20405;-73
2022/11/06 07:21:56;;;;;;;9.88;3.92;;;;;;;;;;5072818;28;20035;-73
2022/11/06 07:24:22;;;;;;;21.80;4.80;;;;;;;;;;5072733;28;20041;-73
2022/11/06 07:26:48;;;;;;;15.75;4.43;;;;;;;;;;5073020;28;20020;-73
2022/11/06 07:29:15;;;;;;;20.02;4.20;;;;;;;;;;5072636;28;20032;-73
2022/11/06 07:31:41;;;;;;;15.25;3.65;;;;;;;;;;5072471;28;20023;-73
2022/11/06 07:34:07;;;;;;;10.27;3.10;;;;;;;;;;5072678;28;20054;-74
2022/11/06 07:36:35;;;;;;;14.60;4.40;;;;;;;;;;5072502;28;20021;-73
2022/11/06 07:39:01;;;;;;;12.27;4.05;;;;;;;;;;5072550;28;20507;-74
2022/11/06 07:41:27;;;;;;;14.38;5.32;;;;;;;;;;5072669;28;20468;-74
2022/11/06 07:43:54;;;;;;;13.32;5.30;;;;;;;;;;5072268;28;20384;-74
2022/11/06 07:46:20;;;;;;;8.40;4.38;;;;;;;;;;5072319;28;20033;-73
2022/11/06 07:48:47;;;;;;;7.22;2.80;;;;;;;;;;5071249;28;20129;-74
2022/11/06 07:51:13;;;;;;;7.53;2.95;;;;;;;;;;5072464;28;20027;-73
2022/11/06 07:53:40;;;;;;;3.30;1.83;;;;;;;;;;5072398;28;20512;-73
2022/11/06 07:56:07;;;;;;;4.85;1.95;;;;;;;;;;5072122;28;20028;-74
2022/11/06 07:58:33;;;;;;;4.43;1.90;;;;;;;;;;5072268;28;20028;-74
2022/11/06 08:01:00;;;;;;;3.15;1.30;;;;;;;;;;5071959;28;20021;-74
2022/11/06 08:03:28;;;;;;;2.28;1.63;;;;;;;;;;5072125;28;20035;-74
2022/11/06 08:05:55;;;;;;;7.65;4.72;;;;;;;;;;5072123;28;20030;-74
2022/11/06 08:08:22;;;;;;;4.22;2.15;;;;;;;;;;5072075;28;20016;-74
2022/11/06 08:10:50;;;;;;;3.65;2.30;;;;;;;;;;5072352;28;20035;-74
2022/11/06 08:13:18;;;;;;;6.35;1.95;;;;;;;;;;5072038;28;20511;-73
2022/11/06 08:15:44;;;;;;;2.60;1.77;;;;;;;;;;5071908;28;20045;-74
2022/11/06 08:18:11;;;;;;;6.43;2.15;;;;;;;;;;5071999;28;20520;-74
2022/11/06 08:20:38;;;;;;;3.20;1.90;;;;;;;;;;5072043;28;20033;-73
2022/11/06 08:23:06;;;;;;;6.18;2.00;;;;;;;;;;5071929;28;20046;-74
2022/11/06 08:25:33;;;;;;;1.75;1.30;;;;;;;;;;5071819;28;20046;-74
2022/11/06 08:28:00;;;;;;;2.95;1.40;;;;;;;;;;5075520;28;20020;-74
2022/11/06 08:30:27;;;;;;;4.80;1.70;;;;;;;;;;5092014;28;20036;-73
2022/11/06 08:32:54;;;;;;;2.83;1.95;;;;;;;;;;5092070;28;20028;-74
2022/11/06 08:35:21;;;;;;;3.38;1.80;;;;;;;;;;5092216;28;20020;-74
2022/11/06 08:37:47;;;;;;;6.40;1.92;;;;;;;;;;5096811;28;20047;-73
2022/11/06 08:40:13;;;;;;;3.05;1.70;;;;;;;;;;5098554;28;20469;-74
2022/11/06 08:42:40;;;;;;;2.22;1.80;;;;;;;;;;5097783;28;20031;-74
2022/11/06 08:45:06;;;;;;;1.98;1.40;;;;;;;;;;5087762;28;20420;-74
2022/11/06 08:47:33;;;;;;;2.58;2.10;;;;;;;;;;5078351;28;20020;-74
2022/11/06 08:49:59;;;;;;;3.42;2.17;;;;;;;;;;5078476;28;20112;-73
2022/11/06 08:52:25;;;;;;;3.72;2.05;;;;;;;;;;5078465;28;20021;-73
2022/11/06 08:54:51;;;;;;;2.60;1.90;;;;;;;;;;5078411;28;20051;-73
2022/11/06 08:57:18;;;;;;;5.18;2.28;;;;;;;;;;5078382;28;20035;-73
2022/11/06 08:59:44;;;;;;;2.47;2.00;;;;;;;;;;5077916;28;20024;-73
2022/11/06 09:02:12;;;;;;;3.22;1.67;;;;;;;;;;5078803;28;20026;-73
2022/11/06 09:04:38;;;;;;;3.05;1.30;;;;;;;;;;5078318;28;20032;-74
2022/11/06 09:07:05;;;;;;;1.73;1.23;;;;;;;;;;5077957;28;20606;-73
2022/11/06 09:09:31;;;;;;;1.70;1.30;;;;;;;;;;5094805;28;20246;-73
2022/11/06 09:12:02;;;;;;;1.80;1.30;;;;;;;;;;5078390;28;20507;-74
2022/11/06 09:14:28;;;;;;;2.72;1.42;;;;;;;;;;5077631;28;20048;-74
2022/11/06 09:16:55;;;;;;;1.33;1.05;;;;;;;;;;5078210;28;20070;-74
2022/11/06 09:19:21;;;;;;;1.33;1.02;;;;;;;;;;5078261;28;20039;-73
2022/11/06 09:21:47;;;;;;;1.60;1.13;;;;;;;;;;5078217;28;20031;-73
2022/11/06 09:24:15;;;;;;;5.65;2.00;;;;;;;;;;5076683;28;20048;-73
2022/11/06 09:26:41;;;;;;;1.58;1.33;;;;;;;;;;5078087;28;20021;-73
2022/11/06 09:29:07;;;;;;;2.28;1.27;;;;;;;;;;5077627;28;20024;-73
2022/11/06 09:31:34;;;;;;;3.42;1.80;;;;;;;;;;5078046;28;20073;-74
2022/11/06 09:34:00;;;;;;;5.47;1.60;;;;;;;;;;5078085;28;20027;-73
2022/11/06 09:36:26;;;;;;;2.25;1.60;;;;;;;;;;5076979;28;20036;-73
2022/11/06 09:38:53;;;;;;;3.47;1.60;;;;;;;;;;5078170;28;20023;-73
2022/11/06 09:41:25;;;;;;;2.83;1.20;;;;;;;;;;5078156;28;20039;-73
2022/11/06 09:44:07;;;;;;;3.38;1.30;;;;;;;;;;5077595;28;20505;-73
2022/11/06 09:46:44;;;;;;;1.92;1.25;;;;;;;;;;5057909;28;20397;-73
2022/11/06 09:49:20;;;;;;;1.98;1.30;;;;;;;;;;5054452;28;20025;-73
2022/11/06 09:51:58;;;;;;;1.70;1.20;;;;;;;;;;5054652;28;20026;-73
2022/11/06 09:54:30;;;;;;;1.48;1.33;;;;;;;;;;5054642;28;20386;-73
2022/11/06 09:57:02;;;;;;;4.47;1.45;;;;;;;;;;5056165;28;20047;-73
2022/11/06 09:59:32;;;;;;;1.98;1.23;;;;;;;;;;5090200;28;20435;-73
2022/11/06 10:02:00;;;;;;;2.85;1.60;;;;;;;;;;5074576;28;20396;-73
2022/11/06 10:04:35;;;;;;;2.53;1.50;;;;;;;;;;5074384;28;20032;-73
2022/11/06 10:07:02;;;;;;;4.15;1.65;;;;;;;;;;5074284;28;20367;-73
2022/11/06 10:09:28;;;;;;;5.55;1.63;;;;;;;;;;5074397;28;20020;-73
2022/11/06 10:11:58;;;;;;;2.30;1.40;;;;;;;;;;5074174;28;20028;-73
2022/11/06 10:14:31;;;;;;;3.00;1.40;;;;;;;;;;5074154;28;20063;-73
2022/11/06 10:17:03;;;;;;;4.15;1.27;;;;;;;;;;5074077;28;20035;-73
2022/11/06 10:19:32;;;;;;;2.60;1.25;;;;;;;;;;5074169;28;20020;-73
2022/11/06 10:22:14;;;;;;;2.67;1.10;;;;;;;;;;5074290;28;20024;-73
2022/11/06 10:24:59;;;;;;;1.92;1.20;;;;;;;;;;5073900;28;20032;-73
2022/11/06 10:27:32;;;;;;;1.65;1.20;;;;;;;;;;5073826;28;20039;-73
2022/11/06 10:30:03;;;;;;;2.67;1.40;;;;;;;;;;5074074;28;20051;-73
2022/11/06 10:32:52;;;;;;;2.75;1.10;;;;;;;;;;5074007;28;20020;-73
2022/11/06 10:35:19;;;;;;;1.65;1.30;;;;;;;;;;5073766;28;20217;-73
2022/11/06 10:37:50;;;;;;;2.25;1.38;;;;;;;;;;5073684;28;20059;-73
2022/11/06 10:40:18;;;;;;;2.22;1.55;;;;;;;;;;5073247;28;20046;-73
2022/11/06 10:42:46;;;;;;;3.95;1.50;;;;;;;;;;5072859;28;20032;-73
2022/11/06 10:45:14;;;;;;;2.25;1.75;;;;;;;;;;5073537;28;20032;-73
2022/11/06 10:47:55;;;;;;;2.30;1.50;;;;;;;;;;5073967;28;20031;-73
2022/11/06 10:50:22;;;;;;;2.08;1.25;;;;;;;;;;5073387;28;20412;-73
2022/11/06 10:52:59;;;;;;;2.63;1.42;;;;;;;;;;5073728;28;20024;-73
2022/11/06 10:55:31;;;;;;;2.03;1.33;;;;;;;;;;5073289;28;20029;-73
2022/11/06 10:58:05;;;;;;;3.08;1.50;;;;;;;;;;5073659;28;20028;-73
2022/11/06 11:00:32;;;;;;;2.10;1.27;;;;;;;;;;5073118;28;20367;-73
2022/11/06 11:02:59;;;;;;;3.35;1.23;;;;;;;;;;5073389;28;20031;-73
2022/11/06 11:05:27;;;;;;;1.85;1.25;;;;;;;;;;5073056;28;20416;-73
2022/11/06 11:07:54;;;;;;;1.98;1.38;;;;;;;;;;5073401;28;20025;-73
2022/11/06 11:10:23;;;;;;;3.80;1.40;;;;;;;;;;5072658;28;20017;-74
2022/11/06 11:12:53;;;;;;;5.72;1.60;;;;;;;;;;5073390;28;20036;-73
2022/11/06 11:15:21;;;;;;;2.08;1.40;;;;;;;;;;5072877;28;20060;-74
2022/11/06 11:18:29;;;;;;;2.33;1.63;;;;;;;;;;5072962;28;20400;-73
2022/11/06 11:21:16;;;;;;;2.25;1.38;;;;;;;;;;5070356;28;20492;-74
2022/11/06 11:23:43;;;;;;;2.15;1.50;;;;;;;;;;5070167;28;20553;-74
2022/11/06 11:26:23;;;;;;;6.20;1.42;;;;;;;;;;5070526;28;20043;-74
2022/11/06 11:29:00;;;;;;;2.08;1.50;;;;;;;;;;5070560;28;20567;-73
2022/11/06 11:31:30;;;;;;;3.42;1.77;;;;;;;;;;5070431;28;20051;-74
2022/11/06 11:33:56;;;;;;;;;;;;;;;;;;5070940;28;20043;-71
2022/11/06 11:36:23;;;;;;;2.40;1.52;;;;;;;;;;5070787;28;19908;-73
2022/11/06 11:38:50;;;;;;;3.47;1.73;;;;;;;;;;5069685;28;20033;-73
2022/11/06 11:41:19;;;;;;;2.50;1.80;;;;;;;;;;5070693;28;20036;-73
2022/11/06 11:44:06;;;;;;;2.97;1.52;;;;;;;;;;5070178;28;20048;-73
2022/11/06 11:46:33;;;;;;;4.00;1.73;;;;;;;;;;5050506;28;20021;-73
2022/11/06 11:49:01;;;;;;;3.33;1.70;;;;;;;;;;5050343;28;20510;-73
2022/11/06 11:51:38;;;;;;;3.92;1.85;;;;;;;;;;5050207;28;20402;-73
2022/11/06 11:54:10;;;;;;;4.90;2.60;;;;;;;;;;5050157;28;20032;-73
2022/11/06 11:56:52;;;;;;;5.35;2.25;;;;;;;;;;5052340;28;20024;-73
2022/11/06 11:59:37;;;;;;;3.72;2.58;;;;;;;;;;5067258;28;20024;-73
2022/11/06 12:02:11;;;;;;;6.75;3.10;;;;;;;;;;5072340;28;20392;-73
2022/11/06 12:04:42;;;;;;;4.40;3.15;;;;;;;;;;5070966;28;20523;-73
2022/11/06 12:07:14;;;;;;;4.70;3.15;;;;;;;;;;5071585;28;20031;-73
2022/11/06 12:09:41;;;;;;;3.53;2.80;;;;;;;;;;5072197;28;20059;-73
2022/11/06 12:12:18;;;;;;;4.68;3.05;;;;;;;;;;5071499;28;20496;-73
2022/11/06 12:14:44;;;;;;;5.78;3.17;;;;;;;;;;5072012;28;20051;-73
2022/11/06 12:17:22;;;;;;;3.50;2.65;;;;;;;;;;5072118;28;20025;-73
2022/11/06 12:19:52;;;;;;;4.85;3.13;;;;;;;;;;5071846;28;20029;-73
2022/11/06 12:22:26;;;;;;;4.45;2.38;;;;;;;;;;5071461;28;20026;-73
2022/11/06 12:24:54;;;;;;;7.25;2.20;;;;;;;;;;5072052;28;20535;-73
2022/11/06 12:27:47;;;;;;;3.97;2.40;;;;;;;;;;5072045;28;20392;-73
2022/11/06 12:30:18;;;;;;;3.22;2.40;;;;;;;;;;5071370;28;20032;-73
2022/11/06 12:32:47;;;;;;;2.97;2.20;;;;;;;;;;5072051;28;20021;-73
2022/11/06 12:35:30;;;;;;;3.08;2.20;;;;;;;;;;5071755;28;20511;-72
2022/11/06 12:38:02;;;;;;;3.22;1.85;;;;;;;;;;5071551;28;20036;-73
2022/11/06 12:40:30;;;;;;;2.75;1.90;;;;;;;;;;5071763;28;20070;-73
2022/11/06 12:42:56;;;;;;;3.55;2.05;;;;;;;;;;5071669;28;20033;-72
2022/11/06 12:45:26;;;;;;;3.30;2.17;;;;;;;;;;5071758;28;20408;-71
2022/11/06 12:47:58;;;;;;;2.40;1.83;;;;;;;;;;5071792;28;20031;-71
2022/11/06 12:50:30;;;;;;;2.50;1.90;;;;;;;;;;5087129;28;20512;-71
2022/11/06 12:53:15;;;;;;;2.03;1.50;;;;;;;;;;5071830;28;20038;-71
2022/11/06 12:55:54;;;;;;;2.72;1.80;;;;;;;;;;5071806;28;20039;-73
2022/11/06 12:58:20;;;;;;;2.30;1.65;;;;;;;;;;5071583;28;20419;-71
2022/11/06 13:01:02;;;;;;;1.90;1.55;;;;;;;;;;5071535;28;20385;-71
2022/11/06 13:03:28;;;;;;;2.58;1.70;;;;;;;;;;5071512;28;20182;-71
2022/11/06 13:05:57;;;;;;;1.75;1.30;;;;;;;;;;5071209;28;20031;-73
2022/11/06 13:08:36;;;;;;;1.67;1.30;;;;;;;;;;5071572;28;20020;-73
2022/11/06 13:11:15;;;;;;;3.47;2.00;;;;;;;;;;5070377;28;20046;-73
2022/11/06 13:13:50;;;;;;;2.20;1.15;;;;;;;;;;5071671;28;20041;-73
2022/11/06 13:16:16;;;;;;;2.20;1.45;;;;;;;;;;5071478;28;20024;-73
2022/11/06 13:18:48;;;;;;;2.05;1.20;;;;;;;;;;5071877;28;20021;-73
2022/11/06 13:21:20;;;;;;;1.80;1.20;;;;;;;;;;5071445;28;20032;-73
2022/11/06 13:23:48;;;;;;;2.95;1.38;;;;;;;;;;5073448;28;20428;-73
2022/11/06 13:26:17;;;;;;;1.65;1.40;;;;;;;;;;5074947;28;20029;-73
2022/11/06 13:28:46;;;;;;;4.32;1.33;;;;;;;;;;5075172;28;20024;-73
2022/11/06 13:31:14;;;;;;;2.25;1.10;;;;;;;;;;5075157;28;20388;-72
2022/11/06 13:33:43;;;;;;;2.13;1.30;;;;;;;;;;5074954;28;20033;-73
2022/11/06 13:36:10;;;;;;;4.43;1.30;;;;;;;;;;5075094;28;20017;-72
2022/11/06 13:38:51;;;;;;;2.45;1.20;;;;;;;;;;5074015;28;20039;-73
2022/11/06 13:41:27;;;;;;;1.88;1.15;;;;;;;;;;5074947;28;20024;-73
2022/11/06 13:43:56;;;;;;;1.88;1.33;;;;;;;;;;5073793;28;20431;-73
2022/11/06 13:46:22;;;;;;;1.00;0.90;;;;;;;;;;5054818;28;20024;-73
2022/11/06 13:48:53;;;;;;;3.35;1.17;;;;;;;;;;5054305;28;20396;-73
2022/11/06 13:51:37;;;;;;;0.85;0.85;;;;;;;;;;5054708;28;20377;-73
2022/11/06 13:54:10;;;;;;;1.63;1.27;;;;;;;;;;5054849;28;20023;-73
2022/11/06 13:56:39;;;;;;;2.38;1.10;;;;;;;;;;5054771;28;20013;-73
2022/11/06 13:59:12;;;;;;;1.33;0.93;;;;;;;;;;5054825;28;20025;-73
2022/11/06 14:01:48;;;;;;;2.25;1.00;;;;;;;;;;5069117;28;20027;-73
2022/11/06 14:04:17;;;;;;;3.47;1.80;;;;;;;;;;5074022;28;20039;-73
2022/11/06 14:06:44;;;;;;;2.30;1.75;;;;;;;;;;5074414;28;20381;-73
2022/11/06 14:09:16;;;;;;;1.92;1.70;;;;;;;;;;5074342;28;20039;-73
2022/11/06 14:11:44;;;;;;;1.00;0.90;;;;;;;;;;5074271;28;20085;-73
2022/11/06 14:14:22;;;;;;;1.35;0.80;;;;;;;;;;5074186;28;20459;-73
2022/11/06 14:17:08;;;;;;;0.70;0.65;;;;;;;;;;5074231;28;20020;-73
2022/11/06 14:19:34;;;;;;;0.85;0.77;;;;;;;;;;5073881;28;20386;-73
2022/11/06 14:22:19;;;;;;;1.13;0.80;;;;;;;;;;5074311;28;20096;-73
2022/11/06 14:24:45;;;;;;;1.05;0.90;;;;;;;;;;5074128;28;20036;-73
2022/11/06 14:27:18;;;;;;;2.55;0.80;;;;;;;;;;5074375;28;20021;-73
2022/11/06 14:29:54;;;;;;;1.52;1.10;;;;;;;;;;5074114;28;20038;-73
2022/11/06 14:32:20;;;;;;;1.10;1.00;;;;;;;;;;5073639;28;20017;-73
2022/11/06 14:34:47;;;;;;;3.03;1.23;;;;;;;;;;5073204;28;20501;-73
2022/11/06 14:37:19;;;;;;;0.73;0.50;;;;;;;;;;5073930;28;20384;-73
2022/11/06 14:39:52;;;;;;;1.30;0.90;;;;;;;;;;5073617;28;20024;-73
2022/11/06 14:42:27;;;;;;;2.05;0.68;;;;;;;;;;5073687;28;20016;-73
2022/11/06 14:44:56;;;;;;;0.90;0.55;;;;;;;;;;5073532;28;20506;-72
2022/11/06 14:47:25;;;;;;;2.83;0.75;;;;;;;;;;5073489;28;20021;-73
2022/11/06 14:49:55;;;;;;;0.70;0.60;;;;;;;;;;5089356;28;20032;-73
2022/11/06 14:52:23;;;;;;;1.38;0.90;;;;;;;;;;5073912;28;20024;-72
2022/11/06 14:54:56;;;;;;;1.63;0.80;;;;;;;;;;5072190;28;20024;-72
2022/11/06 14:57:49;;;;;;;5.70;1.08;;;;;;;;;;5073586;28;20013;-72
2022/11/06 15:00:33;;;;;;;1.70;1.10;;;;;;;;;;5073305;28;20033;-73
2022/11/06 15:03:00;;;;;;;3.58;1.90;;;;;;;;;;5071923;28;20036;-73
2022/11/06 15:05:27;;;;;;;3.13;1.98;;;;;;;;;;5073181;28;20041;-72
2022/11/06 15:07:56;;;;;;;2.65;1.13;;;;;;;;;;5073326;28;20027;-72
2022/11/06 15:10:40;;;;;;;4.30;1.50;;;;;;;;;;5072754;28;20028;-73